Perch River, New York
Current Conditions -  °F | °C
As of 2:56 AM on Saturday 20 Dec 2014 (Local Time) from KART Reporting Station
Clear Clear  
Wind Chill: -9°   Ceiling: Unl
Heat Index: -9°   Visibility: 10mi
Dew Point: -13°   Wind: 3mph
Humidity: 77%   Direction: 90°E
Pressure: 30.26"   Gusts: NA
Location:  44.0116°N, 76.0789°W
Report Text: KART 200756Z AUTO 09003KT 10SM CLR M09/M13 A3026 RMK AO2 SLP257 I1000 T10941128
Loading
Personal Weather Stations






























Interactive Weather Map New forecast layout! Learn more

10-Day Weather Forecast

Advertisements
Track Severe Weather on mobile